Stonewall Jackson Training S, North Carolina
Current Conditions -  °F | °C
As of 11:15 PM on Tuesday 21 Oct 2014 (Local Time) from KJQF Reporting Station
Clear Clear  
Wind Chill: 55°   Ceiling: Unl
Heat Index: 55°   Visibility: 10mi
Dew Point: 37°   Wind: 15mph
Humidity: 51%   Direction: 340°NNW
Pressure: 30.02"   Gusts: 25mph
Location:  35.3735°N, 80.5212°W
Report Text: KJQF 220315Z AUTO 34013G22KT 10SM CLR 13/03 A3002 RMK AO2
Loading
Personal Weather Stations






























Interactive Weather Map
Tropical Storm Tracking
New forecast layout! Learn more

10-Day Weather Forecast

Advertisements
Track Severe Weather on mobile